<?xml version="1.0" encoding="UTF-8" standalone="no" ?>
<gpx xmlns="http://www.topografix.com/GPX/1/1" xmlns:xsi="http://www.w3.org/2001/XMLSchema-instance" xsi:schemaLocation="http://www.topografix.com/GPX/1/1 http://www.topografix.com/GPX/1/1/gpx.xsd" version="1.1" creator="VisuGPX - https://www.visugpx.com">
  <metadata>
    <name>MN-FRONTENAS</name>
  </metadata>
  <wpt lat="45.91592" lon="4.61695">
    <ele>365.8</ele>
  </wpt>
  <trk>
    <name><![CDATA[MN-FRONTENAS_3]]></name>
    <trkseg>
      <trkpt lat="45.91604" lon="4.61763">
        <ele>372.79998779297</ele>
        <time>2021-10-06T09:18:42.156Z</time>
      </trkpt>
      <trkpt lat="45.9161" lon="4.61762">
        <ele>372.79998779297</ele>
        <time>2021-10-06T09:18:46.353Z</time>
      </trkpt>
      <trkpt lat="45.91635" lon="4.61745">
        <ele>374</ele>
        <time>2021-10-06T09:18:50.560Z</time>
      </trkpt>
      <trkpt lat="45.91652" lon="4.61731">
        <ele>376.79998779297</ele>
        <time>2021-10-06T09:18:54.775Z</time>
      </trkpt>
      <trkpt lat="45.91739" lon="4.61681">
        <ele>387.39999389648</ele>
        <time>2021-10-06T09:18:59.023Z</time>
      </trkpt>
      <trkpt lat="45.9176" lon="4.61676">
        <ele>387.39999389648</ele>
        <time>2021-10-06T09:19:03.279Z</time>
      </trkpt>
      <trkpt lat="45.9178" lon="4.61678">
        <ele>387.39999389648</ele>
        <time>2021-10-06T09:19:07.542Z</time>
      </trkpt>
      <trkpt lat="45.91797" lon="4.61673">
        <ele>393.79998779297</ele>
        <time>2021-10-06T09:19:11.811Z</time>
      </trkpt>
      <trkpt lat="45.91806" lon="4.61667">
        <ele>393.79998779297</ele>
        <time>2021-10-06T09:19:16.083Z</time>
      </trkpt>
      <trkpt lat="45.91815" lon="4.61662">
        <ele>393.79998779297</ele>
        <time>2021-10-06T09:19:20.359Z</time>
      </trkpt>
      <trkpt lat="45.91828" lon="4.6165">
        <ele>396</ele>
        <time>2021-10-06T09:19:24.640Z</time>
      </trkpt>
      <trkpt lat="45.9184" lon="4.61626">
        <ele>396</ele>
        <time>2021-10-06T09:19:28.929Z</time>
      </trkpt>
      <trkpt lat="45.91854" lon="4.6159">
        <ele>400</ele>
        <time>2021-10-06T09:19:33.228Z</time>
      </trkpt>
      <trkpt lat="45.91868" lon="4.61567">
        <ele>402.60000610352</ele>
        <time>2021-10-06T09:19:37.535Z</time>
      </trkpt>
      <trkpt lat="45.91871" lon="4.61555">
        <ele>403.20001220703</ele>
        <time>2021-10-06T09:19:41.845Z</time>
      </trkpt>
      <trkpt lat="45.9189" lon="4.61515">
        <ele>403.20001220703</ele>
        <time>2021-10-06T09:19:46.167Z</time>
      </trkpt>
      <trkpt lat="45.91897" lon="4.61491">
        <ele>409</ele>
        <time>2021-10-06T09:19:50.496Z</time>
      </trkpt>
      <trkpt lat="45.91904" lon="4.61457">
        <ele>409</ele>
        <time>2021-10-06T09:19:54.833Z</time>
      </trkpt>
      <trkpt lat="45.9191" lon="4.6144">
        <ele>415</ele>
        <time>2021-10-06T09:19:59.175Z</time>
      </trkpt>
      <trkpt lat="45.91919" lon="4.61422">
        <ele>418.20001220703</ele>
        <time>2021-10-06T09:20:03.523Z</time>
      </trkpt>
      <trkpt lat="45.91929" lon="4.61382">
        <ele>423.39999389648</ele>
        <time>2021-10-06T09:20:07.881Z</time>
      </trkpt>
      <trkpt lat="45.91938" lon="4.61372">
        <ele>425</ele>
        <time>2021-10-06T09:20:12.243Z</time>
      </trkpt>
      <trkpt lat="45.91958" lon="4.61362">
        <ele>428</ele>
        <time>2021-10-06T09:20:16.613Z</time>
      </trkpt>
      <trkpt lat="45.91967" lon="4.61348">
        <ele>428</ele>
        <time>2021-10-06T09:20:20.988Z</time>
      </trkpt>
      <trkpt lat="45.91971" lon="4.61345">
        <ele>428</ele>
        <time>2021-10-06T09:20:25.364Z</time>
      </trkpt>
      <trkpt lat="45.91978" lon="4.61346">
        <ele>432.20001220703</ele>
        <time>2021-10-06T09:20:29.743Z</time>
      </trkpt>
      <trkpt lat="45.91984" lon="4.6135">
        <ele>434.79998779297</ele>
        <time>2021-10-06T09:20:34.124Z</time>
      </trkpt>
      <trkpt lat="45.91991" lon="4.61351">
        <ele>434.79998779297</ele>
        <time>2021-10-06T09:20:38.508Z</time>
      </trkpt>
      <trkpt lat="45.92017" lon="4.61346">
        <ele>435.20001220703</ele>
        <time>2021-10-06T09:20:42.901Z</time>
      </trkpt>
      <trkpt lat="45.92034" lon="4.61341">
        <ele>435.20001220703</ele>
        <time>2021-10-06T09:20:47.301Z</time>
      </trkpt>
      <trkpt lat="45.92054" lon="4.6134">
        <ele>438</ele>
        <time>2021-10-06T09:20:51.707Z</time>
      </trkpt>
      <trkpt lat="45.92057" lon="4.6136">
        <ele>438</ele>
        <time>2021-10-06T09:20:56.119Z</time>
      </trkpt>
      <trkpt lat="45.92055" lon="4.61388">
        <ele>433.79998779297</ele>
        <time>2021-10-06T09:21:00.538Z</time>
      </trkpt>
      <trkpt lat="45.92065" lon="4.61404">
        <ele>433.79998779297</ele>
        <time>2021-10-06T09:21:04.962Z</time>
      </trkpt>
      <trkpt lat="45.92088" lon="4.61422">
        <ele>427.20001220703</ele>
        <time>2021-10-06T09:21:09.396Z</time>
      </trkpt>
      <trkpt lat="45.92102" lon="4.61431">
        <ele>426</ele>
        <time>2021-10-06T09:21:13.835Z</time>
      </trkpt>
      <trkpt lat="45.9212" lon="4.61438">
        <ele>426</ele>
        <time>2021-10-06T09:21:18.281Z</time>
      </trkpt>
      <trkpt lat="45.92136" lon="4.61438">
        <ele>426</ele>
        <time>2021-10-06T09:21:22.732Z</time>
      </trkpt>
      <trkpt lat="45.92154" lon="4.61445">
        <ele>420.20001220703</ele>
        <time>2021-10-06T09:21:27.190Z</time>
      </trkpt>
      <trkpt lat="45.92174" lon="4.61456">
        <ele>420.20001220703</ele>
        <time>2021-10-06T09:21:31.656Z</time>
      </trkpt>
      <trkpt lat="45.92193" lon="4.61474">
        <ele>415.39999389648</ele>
        <time>2021-10-06T09:21:36.130Z</time>
      </trkpt>
      <trkpt lat="45.92199" lon="4.61471">
        <ele>413.79998779297</ele>
        <time>2021-10-06T09:21:40.606Z</time>
      </trkpt>
      <trkpt lat="45.92207" lon="4.61456">
        <ele>413.79998779297</ele>
        <time>2021-10-06T09:21:45.087Z</time>
      </trkpt>
      <trkpt lat="45.9222" lon="4.61441">
        <ele>411.60000610352</ele>
        <time>2021-10-06T09:21:49.574Z</time>
      </trkpt>
      <trkpt lat="45.9225" lon="4.61388">
        <ele>411.60000610352</ele>
        <time>2021-10-06T09:21:54.078Z</time>
      </trkpt>
      <trkpt lat="45.92276" lon="4.61315">
        <ele>411.60000610352</ele>
        <time>2021-10-06T09:21:58.602Z</time>
      </trkpt>
      <trkpt lat="45.92284" lon="4.61301">
        <ele>415.20001220703</ele>
        <time>2021-10-06T09:22:03.131Z</time>
      </trkpt>
      <trkpt lat="45.92323" lon="4.61245">
        <ele>419.39999389648</ele>
        <time>2021-10-06T09:22:07.680Z</time>
      </trkpt>
      <trkpt lat="45.92334" lon="4.61225">
        <ele>419.39999389648</ele>
        <time>2021-10-06T09:22:12.235Z</time>
      </trkpt>
      <trkpt lat="45.92361" lon="4.61195">
        <ele>421</ele>
        <time>2021-10-06T09:22:16.802Z</time>
      </trkpt>
      <trkpt lat="45.92367" lon="4.61181">
        <ele>421</ele>
        <time>2021-10-06T09:22:21.373Z</time>
      </trkpt>
      <trkpt lat="45.92368" lon="4.6117">
        <ele>421</ele>
        <time>2021-10-06T09:22:25.947Z</time>
      </trkpt>
      <trkpt lat="45.92379" lon="4.61154">
        <ele>421</ele>
        <time>2021-10-06T09:22:30.526Z</time>
      </trkpt>
      <trkpt lat="45.92385" lon="4.61117">
        <ele>421</ele>
        <time>2021-10-06T09:22:35.115Z</time>
      </trkpt>
      <trkpt lat="45.92384" lon="4.61108">
        <ele>421</ele>
        <time>2021-10-06T09:22:39.706Z</time>
      </trkpt>
      <trkpt lat="45.92393" lon="4.61106">
        <ele>421</ele>
        <time>2021-10-06T09:22:44.300Z</time>
      </trkpt>
      <trkpt lat="45.92403" lon="4.61096">
        <ele>421</ele>
        <time>2021-10-06T09:22:48.899Z</time>
      </trkpt>
      <trkpt lat="45.92411" lon="4.6108">
        <ele>427</ele>
        <time>2021-10-06T09:22:53.503Z</time>
      </trkpt>
      <trkpt lat="45.92427" lon="4.61058">
        <ele>427.60000610352</ele>
        <time>2021-10-06T09:22:58.115Z</time>
      </trkpt>
      <trkpt lat="45.92432" lon="4.61049">
        <ele>427.60000610352</ele>
        <time>2021-10-06T09:23:02.729Z</time>
      </trkpt>
      <trkpt lat="45.9244" lon="4.61023">
        <ele>427.60000610352</ele>
        <time>2021-10-06T09:23:07.350Z</time>
      </trkpt>
      <trkpt lat="45.92449" lon="4.61004">
        <ele>427.60000610352</ele>
        <time>2021-10-06T09:23:11.977Z</time>
      </trkpt>
      <trkpt lat="45.92455" lon="4.60998">
        <ele>427.60000610352</ele>
        <time>2021-10-06T09:23:16.607Z</time>
      </trkpt>
      <trkpt lat="45.9247" lon="4.60989">
        <ele>427.60000610352</ele>
        <time>2021-10-06T09:23:21.243Z</time>
      </trkpt>
      <trkpt lat="45.92486" lon="4.60986">
        <ele>423.79998779297</ele>
        <time>2021-10-06T09:23:25.884Z</time>
      </trkpt>
      <trkpt lat="45.92496" lon="4.60991">
        <ele>423.20001220703</ele>
        <time>2021-10-06T09:23:30.529Z</time>
      </trkpt>
      <trkpt lat="45.92501" lon="4.61005">
        <ele>423.20001220703</ele>
        <time>2021-10-06T09:23:35.178Z</time>
      </trkpt>
      <trkpt lat="45.92508" lon="4.61036">
        <ele>423</ele>
        <time>2021-10-06T09:23:39.836Z</time>
      </trkpt>
      <trkpt lat="45.92521" lon="4.61073">
        <ele>423</ele>
        <time>2021-10-06T09:23:44.504Z</time>
      </trkpt>
      <trkpt lat="45.92523" lon="4.61089">
        <ele>423.39999389648</ele>
        <time>2021-10-06T09:23:49.176Z</time>
      </trkpt>
      <trkpt lat="45.92533" lon="4.61112">
        <ele>423.39999389648</ele>
        <time>2021-10-06T09:23:53.855Z</time>
      </trkpt>
      <trkpt lat="45.92536" lon="4.61125">
        <ele>423.39999389648</ele>
        <time>2021-10-06T09:23:58.537Z</time>
      </trkpt>
      <trkpt lat="45.92535" lon="4.6113">
        <ele>423.20001220703</ele>
        <time>2021-10-06T09:24:03.220Z</time>
      </trkpt>
      <trkpt lat="45.92532" lon="4.61134">
        <ele>423.20001220703</ele>
        <time>2021-10-06T09:24:07.905Z</time>
      </trkpt>
      <trkpt lat="45.92523" lon="4.61139">
        <ele>423</ele>
        <time>2021-10-06T09:24:12.593Z</time>
      </trkpt>
      <trkpt lat="45.9251" lon="4.61142">
        <ele>423</ele>
        <time>2021-10-06T09:24:17.286Z</time>
      </trkpt>
      <trkpt lat="45.92503" lon="4.61147">
        <ele>422</ele>
        <time>2021-10-06T09:24:21.982Z</time>
      </trkpt>
      <trkpt lat="45.92499" lon="4.61154">
        <ele>421.60000610352</ele>
        <time>2021-10-06T09:24:26.680Z</time>
      </trkpt>
      <trkpt lat="45.92497" lon="4.61172">
        <ele>420.60000610352</ele>
        <time>2021-10-06T09:24:31.382Z</time>
      </trkpt>
      <trkpt lat="45.92496" lon="4.61195">
        <ele>420.60000610352</ele>
        <time>2021-10-06T09:24:36.090Z</time>
      </trkpt>
      <trkpt lat="45.92498" lon="4.61243">
        <ele>420.60000610352</ele>
        <time>2021-10-06T09:24:40.810Z</time>
      </trkpt>
      <trkpt lat="45.92511" lon="4.61356">
        <ele>405.20001220703</ele>
        <time>2021-10-06T09:24:45.559Z</time>
      </trkpt>
      <trkpt lat="45.92509" lon="4.61432">
        <ele>399</ele>
        <time>2021-10-06T09:24:50.327Z</time>
      </trkpt>
      <trkpt lat="45.92509" lon="4.61455">
        <ele>399</ele>
        <time>2021-10-06T09:24:55.101Z</time>
      </trkpt>
      <trkpt lat="45.92513" lon="4.6148">
        <ele>399</ele>
        <time>2021-10-06T09:24:59.881Z</time>
      </trkpt>
      <trkpt lat="45.9252" lon="4.61508">
        <ele>394.39999389648</ele>
        <time>2021-10-06T09:25:04.668Z</time>
      </trkpt>
      <trkpt lat="45.92541" lon="4.61553">
        <ele>394.39999389648</ele>
        <time>2021-10-06T09:25:09.469Z</time>
      </trkpt>
      <trkpt lat="45.92574" lon="4.61612">
        <ele>388.60000610352</ele>
        <time>2021-10-06T09:25:14.289Z</time>
      </trkpt>
      <trkpt lat="45.92579" lon="4.61627">
        <ele>387.79998779297</ele>
        <time>2021-10-06T09:25:19.113Z</time>
      </trkpt>
      <trkpt lat="45.92582" lon="4.61677">
        <ele>387.79998779297</ele>
        <time>2021-10-06T09:25:23.949Z</time>
      </trkpt>
      <trkpt lat="45.92587" lon="4.61736">
        <ele>380.20001220703</ele>
        <time>2021-10-06T09:25:28.800Z</time>
      </trkpt>
      <trkpt lat="45.92586" lon="4.61748">
        <ele>379.39999389648</ele>
        <time>2021-10-06T09:25:33.654Z</time>
      </trkpt>
      <trkpt lat="45.92579" lon="4.6178">
        <ele>376</ele>
        <time>2021-10-06T09:25:38.517Z</time>
      </trkpt>
      <trkpt lat="45.92571" lon="4.61799">
        <ele>374.60000610352</ele>
        <time>2021-10-06T09:25:43.385Z</time>
      </trkpt>
      <trkpt lat="45.92563" lon="4.61808">
        <ele>373.20001220703</ele>
        <time>2021-10-06T09:25:48.257Z</time>
      </trkpt>
      <trkpt lat="45.92547" lon="4.61817">
        <ele>373.20001220703</ele>
        <time>2021-10-06T09:25:53.135Z</time>
      </trkpt>
      <trkpt lat="45.92542" lon="4.61824">
        <ele>370.60000610352</ele>
        <time>2021-10-06T09:25:58.015Z</time>
      </trkpt>
      <trkpt lat="45.92544" lon="4.61841">
        <ele>370.20001220703</ele>
        <time>2021-10-06T09:26:02.900Z</time>
      </trkpt>
      <trkpt lat="45.92557" lon="4.61896">
        <ele>369.20001220703</ele>
        <time>2021-10-06T09:26:07.799Z</time>
      </trkpt>
      <trkpt lat="45.92555" lon="4.61904">
        <ele>369</ele>
        <time>2021-10-06T09:26:12.700Z</time>
      </trkpt>
      <trkpt lat="45.92548" lon="4.61912">
        <ele>368.60000610352</ele>
        <time>2021-10-06T09:26:17.605Z</time>
      </trkpt>
      <trkpt lat="45.92542" lon="4.61925">
        <ele>368.20001220703</ele>
        <time>2021-10-06T09:26:22.514Z</time>
      </trkpt>
      <trkpt lat="45.92532" lon="4.61939">
        <ele>367.60000610352</ele>
        <time>2021-10-06T09:26:27.428Z</time>
      </trkpt>
      <trkpt lat="45.92531" lon="4.61946">
        <ele>367.60000610352</ele>
        <time>2021-10-06T09:26:32.343Z</time>
      </trkpt>
      <trkpt lat="45.92536" lon="4.61965">
        <ele>367.60000610352</ele>
        <time>2021-10-06T09:26:37.263Z</time>
      </trkpt>
      <trkpt lat="45.92551" lon="4.61993">
        <ele>367.60000610352</ele>
        <time>2021-10-06T09:26:42.192Z</time>
      </trkpt>
      <trkpt lat="45.92555" lon="4.61999">
        <ele>367.60000610352</ele>
        <time>2021-10-06T09:26:47.123Z</time>
      </trkpt>
      <trkpt lat="45.92562" lon="4.62014">
        <ele>367.60000610352</ele>
        <time>2021-10-06T09:26:52.059Z</time>
      </trkpt>
      <trkpt lat="45.92562" lon="4.62024">
        <ele>370.60000610352</ele>
        <time>2021-10-06T09:26:56.997Z</time>
      </trkpt>
      <trkpt lat="45.92555" lon="4.62054">
        <ele>370.60000610352</ele>
        <time>2021-10-06T09:27:01.943Z</time>
      </trkpt>
      <trkpt lat="45.92554" lon="4.62063">
        <ele>370.60000610352</ele>
        <time>2021-10-06T09:27:06.891Z</time>
      </trkpt>
      <trkpt lat="45.92552" lon="4.62072">
        <ele>370.60000610352</ele>
        <time>2021-10-06T09:27:11.842Z</time>
      </trkpt>
      <trkpt lat="45.92543" lon="4.6209">
        <ele>372.39999389648</ele>
        <time>2021-10-06T09:27:16.798Z</time>
      </trkpt>
      <trkpt lat="45.92543" lon="4.62101">
        <ele>372.39999389648</ele>
        <time>2021-10-06T09:27:21.757Z</time>
      </trkpt>
      <trkpt lat="45.92549" lon="4.62108">
        <ele>372.79998779297</ele>
        <time>2021-10-06T09:27:26.719Z</time>
      </trkpt>
      <trkpt lat="45.92575" lon="4.62127">
        <ele>374.79998779297</ele>
        <time>2021-10-06T09:27:31.691Z</time>
      </trkpt>
      <trkpt lat="45.9258" lon="4.62132">
        <ele>375.60000610352</ele>
        <time>2021-10-06T09:27:36.665Z</time>
      </trkpt>
      <trkpt lat="45.92583" lon="4.62138">
        <ele>375.79998779297</ele>
        <time>2021-10-06T09:27:41.641Z</time>
      </trkpt>
      <trkpt lat="45.92582" lon="4.62151">
        <ele>375.79998779297</ele>
        <time>2021-10-06T09:27:46.621Z</time>
      </trkpt>
      <trkpt lat="45.92576" lon="4.62175">
        <ele>375.79998779297</ele>
        <time>2021-10-06T09:27:51.607Z</time>
      </trkpt>
      <trkpt lat="45.92566" lon="4.62201">
        <ele>377</ele>
        <time>2021-10-06T09:27:56.600Z</time>
      </trkpt>
      <trkpt lat="45.92565" lon="4.62213">
        <ele>377</ele>
        <time>2021-10-06T09:28:01.596Z</time>
      </trkpt>
      <trkpt lat="45.92569" lon="4.62219">
        <ele>377</ele>
        <time>2021-10-06T09:28:06.595Z</time>
      </trkpt>
      <trkpt lat="45.92607" lon="4.62245">
        <ele>378.20001220703</ele>
        <time>2021-10-06T09:28:11.609Z</time>
      </trkpt>
      <trkpt lat="45.92609" lon="4.6225">
        <ele>378.79998779297</ele>
        <time>2021-10-06T09:28:16.624Z</time>
      </trkpt>
      <trkpt lat="45.92587" lon="4.62318">
        <ele>379</ele>
        <time>2021-10-06T09:28:21.658Z</time>
      </trkpt>
      <trkpt lat="45.92569" lon="4.62347">
        <ele>378.79998779297</ele>
        <time>2021-10-06T09:28:26.702Z</time>
      </trkpt>
      <trkpt lat="45.92542" lon="4.62406">
        <ele>378.79998779297</ele>
        <time>2021-10-06T09:28:31.763Z</time>
      </trkpt>
      <trkpt lat="45.92503" lon="4.62467">
        <ele>378.79998779297</ele>
        <time>2021-10-06T09:28:36.845Z</time>
      </trkpt>
      <trkpt lat="45.92443" lon="4.62537">
        <ele>369</ele>
        <time>2021-10-06T09:28:41.955Z</time>
      </trkpt>
      <trkpt lat="45.92436" lon="4.62552">
        <ele>368.60000610352</ele>
        <time>2021-10-06T09:28:47.069Z</time>
      </trkpt>
      <trkpt lat="45.92436" lon="4.62556">
        <ele>368.60000610352</ele>
        <time>2021-10-06T09:28:52.184Z</time>
      </trkpt>
      <trkpt lat="45.92444" lon="4.62574">
        <ele>368.60000610352</ele>
        <time>2021-10-06T09:28:57.304Z</time>
      </trkpt>
      <trkpt lat="45.92456" lon="4.62564">
        <ele>368.60000610352</ele>
        <time>2021-10-06T09:29:02.430Z</time>
      </trkpt>
      <trkpt lat="45.92471" lon="4.6257">
        <ele>367.60000610352</ele>
        <time>2021-10-06T09:29:07.561Z</time>
      </trkpt>
      <trkpt lat="45.92508" lon="4.62599">
        <ele>365.39999389648</ele>
        <time>2021-10-06T09:29:12.707Z</time>
      </trkpt>
      <trkpt lat="45.92514" lon="4.62602">
        <ele>365.39999389648</ele>
        <time>2021-10-06T09:29:17.855Z</time>
      </trkpt>
      <trkpt lat="45.92519" lon="4.62603">
        <ele>365.39999389648</ele>
        <time>2021-10-06T09:29:23.005Z</time>
      </trkpt>
      <trkpt lat="45.92522" lon="4.62606">
        <ele>364.39999389648</ele>
        <time>2021-10-06T09:29:28.156Z</time>
      </trkpt>
      <trkpt lat="45.92528" lon="4.62627">
        <ele>363</ele>
        <time>2021-10-06T09:29:33.313Z</time>
      </trkpt>
      <trkpt lat="45.92525" lon="4.62645">
        <ele>361.20001220703</ele>
        <time>2021-10-06T09:29:38.475Z</time>
      </trkpt>
      <trkpt lat="45.92528" lon="4.62643">
        <ele>361.20001220703</ele>
        <time>2021-10-06T09:29:43.638Z</time>
      </trkpt>
      <trkpt lat="45.92526" lon="4.62643">
        <ele>360.79998779297</ele>
        <time>2021-10-06T09:29:48.802Z</time>
      </trkpt>
      <trkpt lat="45.92539" lon="4.62651">
        <ele>360.79998779297</ele>
        <time>2021-10-06T09:29:53.971Z</time>
      </trkpt>
      <trkpt lat="45.92564" lon="4.62678">
        <ele>359.79998779297</ele>
        <time>2021-10-06T09:29:59.151Z</time>
      </trkpt>
      <trkpt lat="45.92596" lon="4.62701">
        <ele>358.60000610352</ele>
        <time>2021-10-06T09:30:04.344Z</time>
      </trkpt>
      <trkpt lat="45.92608" lon="4.62712">
        <ele>359</ele>
        <time>2021-10-06T09:30:09.542Z</time>
      </trkpt>
      <trkpt lat="45.92644" lon="4.62739">
        <ele>360</ele>
        <time>2021-10-06T09:30:14.755Z</time>
      </trkpt>
      <trkpt lat="45.92643" lon="4.6275">
        <ele>360.20001220703</ele>
        <time>2021-10-06T09:30:19.970Z</time>
      </trkpt>
      <trkpt lat="45.9258" lon="4.62884">
        <ele>355.60000610352</ele>
        <time>2021-10-06T09:30:25.226Z</time>
      </trkpt>
      <trkpt lat="45.92557" lon="4.6295">
        <ele>352.60000610352</ele>
        <time>2021-10-06T09:30:30.500Z</time>
      </trkpt>
      <trkpt lat="45.92546" lon="4.6297">
        <ele>352.60000610352</ele>
        <time>2021-10-06T09:30:35.781Z</time>
      </trkpt>
      <trkpt lat="45.92535" lon="4.62979">
        <ele>352.60000610352</ele>
        <time>2021-10-06T09:30:41.066Z</time>
      </trkpt>
      <trkpt lat="45.92534" lon="4.62982">
        <ele>352.60000610352</ele>
        <time>2021-10-06T09:30:46.352Z</time>
      </trkpt>
      <trkpt lat="45.92562" lon="4.63016">
        <ele>347.20001220703</ele>
        <time>2021-10-06T09:30:51.651Z</time>
      </trkpt>
      <trkpt lat="45.9263" lon="4.63104">
        <ele>346.39999389648</ele>
        <time>2021-10-06T09:30:56.983Z</time>
      </trkpt>
      <trkpt lat="45.92664" lon="4.63162">
        <ele>346.39999389648</ele>
        <time>2021-10-06T09:31:02.334Z</time>
      </trkpt>
      <trkpt lat="45.92741" lon="4.63255">
        <ele>346.39999389648</ele>
        <time>2021-10-06T09:31:07.721Z</time>
      </trkpt>
      <trkpt lat="45.92744" lon="4.63264">
        <ele>346.20001220703</ele>
        <time>2021-10-06T09:31:13.110Z</time>
      </trkpt>
      <trkpt lat="45.92707" lon="4.63373">
        <ele>343.20001220703</ele>
        <time>2021-10-06T09:31:18.530Z</time>
      </trkpt>
      <trkpt lat="45.92682" lon="4.63431">
        <ele>342.39999389648</ele>
        <time>2021-10-06T09:31:23.967Z</time>
      </trkpt>
      <trkpt lat="45.92672" lon="4.63467">
        <ele>342.39999389648</ele>
        <time>2021-10-06T09:31:29.413Z</time>
      </trkpt>
      <trkpt lat="45.92655" lon="4.63561">
        <ele>340.60000610352</ele>
        <time>2021-10-06T09:31:34.883Z</time>
      </trkpt>
      <trkpt lat="45.92652" lon="4.63587">
        <ele>340.39999389648</ele>
        <time>2021-10-06T09:31:40.360Z</time>
      </trkpt>
      <trkpt lat="45.92657" lon="4.63679">
        <ele>340.39999389648</ele>
        <time>2021-10-06T09:31:45.860Z</time>
      </trkpt>
      <trkpt lat="45.92656" lon="4.63711">
        <ele>340</ele>
        <time>2021-10-06T09:31:51.368Z</time>
      </trkpt>
      <trkpt lat="45.92653" lon="4.63741">
        <ele>340.39999389648</ele>
        <time>2021-10-06T09:31:56.884Z</time>
      </trkpt>
      <trkpt lat="45.92647" lon="4.63767">
        <ele>340.39999389648</ele>
        <time>2021-10-06T09:32:02.406Z</time>
      </trkpt>
      <trkpt lat="45.92637" lon="4.63784">
        <ele>341.79998779297</ele>
        <time>2021-10-06T09:32:07.934Z</time>
      </trkpt>
      <trkpt lat="45.92632" lon="4.63801">
        <ele>341.79998779297</ele>
        <time>2021-10-06T09:32:13.467Z</time>
      </trkpt>
      <trkpt lat="45.92633" lon="4.63819">
        <ele>341.79998779297</ele>
        <time>2021-10-06T09:32:19.004Z</time>
      </trkpt>
      <trkpt lat="45.92631" lon="4.63856">
        <ele>341.79998779297</ele>
        <time>2021-10-06T09:32:24.550Z</time>
      </trkpt>
      <trkpt lat="45.92635" lon="4.63875">
        <ele>341.20001220703</ele>
        <time>2021-10-06T09:32:30.101Z</time>
      </trkpt>
      <trkpt lat="45.92646" lon="4.63991">
        <ele>341.20001220703</ele>
        <time>2021-10-06T09:32:35.682Z</time>
      </trkpt>
      <trkpt lat="45.92644" lon="4.64014">
        <ele>341.20001220703</ele>
        <time>2021-10-06T09:32:41.268Z</time>
      </trkpt>
      <trkpt lat="45.92638" lon="4.64051">
        <ele>340.60000610352</ele>
        <time>2021-10-06T09:32:46.864Z</time>
      </trkpt>
      <trkpt lat="45.92622" lon="4.64128">
        <ele>340</ele>
        <time>2021-10-06T09:32:52.480Z</time>
      </trkpt>
      <trkpt lat="45.92621" lon="4.64209">
        <ele>340</ele>
        <time>2021-10-06T09:32:58.116Z</time>
      </trkpt>
      <trkpt lat="45.92613" lon="4.64248">
        <ele>340</ele>
        <time>2021-10-06T09:33:03.763Z</time>
      </trkpt>
      <trkpt lat="45.92593" lon="4.64315">
        <ele>335.20001220703</ele>
        <time>2021-10-06T09:33:09.428Z</time>
      </trkpt>
      <trkpt lat="45.92563" lon="4.64403">
        <ele>335.20001220703</ele>
        <time>2021-10-06T09:33:15.117Z</time>
      </trkpt>
      <trkpt lat="45.92544" lon="4.64454">
        <ele>331.20001220703</ele>
        <time>2021-10-06T09:33:20.820Z</time>
      </trkpt>
      <trkpt lat="45.92559" lon="4.64519">
        <ele>329.60000610352</ele>
        <time>2021-10-06T09:33:26.541Z</time>
      </trkpt>
      <trkpt lat="45.92572" lon="4.64637">
        <ele>329.60000610352</ele>
        <time>2021-10-06T09:33:32.292Z</time>
      </trkpt>
      <trkpt lat="45.92574" lon="4.64696">
        <ele>324.39999389648</ele>
        <time>2021-10-06T09:33:38.057Z</time>
      </trkpt>
      <trkpt lat="45.92573" lon="4.64722">
        <ele>323.60000610352</ele>
        <time>2021-10-06T09:33:43.829Z</time>
      </trkpt>
      <trkpt lat="45.92576" lon="4.64743">
        <ele>323.60000610352</ele>
        <time>2021-10-06T09:33:49.606Z</time>
      </trkpt>
      <trkpt lat="45.92579" lon="4.64791">
        <ele>323.60000610352</ele>
        <time>2021-10-06T09:33:55.395Z</time>
      </trkpt>
      <trkpt lat="45.9258" lon="4.64831">
        <ele>320.79998779297</ele>
        <time>2021-10-06T09:34:01.194Z</time>
      </trkpt>
      <trkpt lat="45.9259" lon="4.64884">
        <ele>319.79998779297</ele>
        <time>2021-10-06T09:34:07.007Z</time>
      </trkpt>
      <trkpt lat="45.92607" lon="4.64942">
        <ele>319.20001220703</ele>
        <time>2021-10-06T09:34:12.835Z</time>
      </trkpt>
      <trkpt lat="45.92619" lon="4.65047">
        <ele>317</ele>
        <time>2021-10-06T09:34:18.690Z</time>
      </trkpt>
      <trkpt lat="45.92625" lon="4.65085">
        <ele>316.39999389648</ele>
        <time>2021-10-06T09:34:24.555Z</time>
      </trkpt>
      <trkpt lat="45.9263" lon="4.65178">
        <ele>316.39999389648</ele>
        <time>2021-10-06T09:34:30.443Z</time>
      </trkpt>
      <trkpt lat="45.9263" lon="4.65204">
        <ele>316.39999389648</ele>
        <time>2021-10-06T09:34:36.337Z</time>
      </trkpt>
      <trkpt lat="45.92627" lon="4.65233">
        <ele>316.39999389648</ele>
        <time>2021-10-06T09:34:42.239Z</time>
      </trkpt>
      <trkpt lat="45.9262" lon="4.65267">
        <ele>313.60000610352</ele>
        <time>2021-10-06T09:34:48.150Z</time>
      </trkpt>
      <trkpt lat="45.92621" lon="4.65273">
        <ele>313.60000610352</ele>
        <time>2021-10-06T09:34:54.062Z</time>
      </trkpt>
      <trkpt lat="45.92623" lon="4.65278">
        <ele>313.60000610352</ele>
        <time>2021-10-06T09:34:59.976Z</time>
      </trkpt>
      <trkpt lat="45.92634" lon="4.65278">
        <ele>313.60000610352</ele>
        <time>2021-10-06T09:35:05.894Z</time>
      </trkpt>
      <trkpt lat="45.92632" lon="4.65273">
        <ele>313.39999389648</ele>
        <time>2021-10-06T09:35:11.813Z</time>
      </trkpt>
      <trkpt lat="45.9263" lon="4.65275">
        <ele>313.39999389648</ele>
        <time>2021-10-06T09:35:17.733Z</time>
      </trkpt>
      <trkpt lat="45.92623" lon="4.65274">
        <ele>313.39999389648</ele>
        <time>2021-10-06T09:35:23.656Z</time>
      </trkpt>
      <trkpt lat="45.92625" lon="4.65275">
        <ele>313.20001220703</ele>
        <time>2021-10-06T09:35:29.579Z</time>
      </trkpt>
      <trkpt lat="45.92627" lon="4.65281">
        <ele>313.20001220703</ele>
        <time>2021-10-06T09:35:35.504Z</time>
      </trkpt>
      <trkpt lat="45.92637" lon="4.65283">
        <ele>312.79998779297</ele>
        <time>2021-10-06T09:35:41.433Z</time>
      </trkpt>
      <trkpt lat="45.92654" lon="4.65291">
        <ele>313</ele>
        <time>2021-10-06T09:35:47.368Z</time>
      </trkpt>
      <trkpt lat="45.92621" lon="4.65286">
        <ele>313</ele>
        <time>2021-10-06T09:35:53.315Z</time>
      </trkpt>
      <trkpt lat="45.92611" lon="4.65289">
        <ele>312.79998779297</ele>
        <time>2021-10-06T09:35:59.265Z</time>
      </trkpt>
      <trkpt lat="45.92602" lon="4.6529">
        <ele>312.79998779297</ele>
        <time>2021-10-06T09:36:05.219Z</time>
      </trkpt>
      <trkpt lat="45.92606" lon="4.653">
        <ele>312.79998779297</ele>
        <time>2021-10-06T09:36:11.176Z</time>
      </trkpt>
      <trkpt lat="45.92611" lon="4.65295">
        <ele>312.79998779297</ele>
        <time>2021-10-06T09:36:17.135Z</time>
      </trkpt>
      <trkpt lat="45.92619" lon="4.65282">
        <ele>312.79998779297</ele>
        <time>2021-10-06T09:36:23.098Z</time>
      </trkpt>
      <trkpt lat="45.92622" lon="4.65273">
        <ele>312.79998779297</ele>
        <time>2021-10-06T09:36:29.064Z</time>
      </trkpt>
      <trkpt lat="45.92618" lon="4.65271">
        <ele>312.60000610352</ele>
        <time>2021-10-06T09:36:35.031Z</time>
      </trkpt>
      <trkpt lat="45.92619" lon="4.65267">
        <ele>312.60000610352</ele>
        <time>2021-10-06T09:36:40.999Z</time>
      </trkpt>
      <trkpt lat="45.92626" lon="4.65273">
        <ele>312.60000610352</ele>
        <time>2021-10-06T09:36:46.970Z</time>
      </trkpt>
      <trkpt lat="45.9263" lon="4.65274">
        <ele>312.60000610352</ele>
        <time>2021-10-06T09:36:52.942Z</time>
      </trkpt>
      <trkpt lat="45.9261" lon="4.65273">
        <ele>312.60000610352</ele>
        <time>2021-10-06T09:36:58.921Z</time>
      </trkpt>
      <trkpt lat="45.92608" lon="4.65276">
        <ele>312.60000610352</ele>
        <time>2021-10-06T09:37:04.901Z</time>
      </trkpt>
      <trkpt lat="45.92614" lon="4.65274">
        <ele>312.60000610352</ele>
        <time>2021-10-06T09:37:10.883Z</time>
      </trkpt>
      <trkpt lat="45.92619" lon="4.65268">
        <ele>312.60000610352</ele>
        <time>2021-10-06T09:37:16.867Z</time>
      </trkpt>
      <trkpt lat="45.9262" lon="4.6527">
        <ele>312.60000610352</ele>
        <time>2021-10-06T09:37:22.852Z</time>
      </trkpt>
      <trkpt lat="45.92623" lon="4.65268">
        <ele>312.79998779297</ele>
        <time>2021-10-06T09:37:28.838Z</time>
      </trkpt>
      <trkpt lat="45.92629" lon="4.65271">
        <ele>312.79998779297</ele>
        <time>2021-10-06T09:37:34.826Z</time>
      </trkpt>
      <trkpt lat="45.92634" lon="4.6528">
        <ele>312.79998779297</ele>
        <time>2021-10-06T09:37:40.817Z</time>
      </trkpt>
      <trkpt lat="45.92628" lon="4.65283">
        <ele>312.79998779297</ele>
        <time>2021-10-06T09:37:46.811Z</time>
      </trkpt>
      <trkpt lat="45.92627" lon="4.65286">
        <ele>312.79998779297</ele>
        <time>2021-10-06T09:37:52.805Z</time>
      </trkpt>
      <trkpt lat="45.92584" lon="4.65283">
        <ele>313</ele>
        <time>2021-10-06T09:37:58.815Z</time>
      </trkpt>
      <trkpt lat="45.92565" lon="4.65284">
        <ele>312.60000610352</ele>
        <time>2021-10-06T09:38:04.832Z</time>
      </trkpt>
      <trkpt lat="45.92518" lon="4.65303">
        <ele>312.60000610352</ele>
        <time>2021-10-06T09:38:10.866Z</time>
      </trkpt>
      <trkpt lat="45.92485" lon="4.653">
        <ele>312.60000610352</ele>
        <time>2021-10-06T09:38:16.912Z</time>
      </trkpt>
      <trkpt lat="45.92461" lon="4.65295">
        <ele>312.60000610352</ele>
        <time>2021-10-06T09:38:22.967Z</time>
      </trkpt>
      <trkpt lat="45.92442" lon="4.65294">
        <ele>310.20001220703</ele>
        <time>2021-10-06T09:38:29.028Z</time>
      </trkpt>
      <trkpt lat="45.92398" lon="4.65296">
        <ele>310</ele>
        <time>2021-10-06T09:38:35.105Z</time>
      </trkpt>
      <trkpt lat="45.92387" lon="4.65298">
        <ele>310</ele>
        <time>2021-10-06T09:38:41.186Z</time>
      </trkpt>
      <trkpt lat="45.92329" lon="4.6532">
        <ele>309</ele>
        <time>2021-10-06T09:38:47.289Z</time>
      </trkpt>
      <trkpt lat="45.92314" lon="4.65323">
        <ele>309</ele>
        <time>2021-10-06T09:38:53.397Z</time>
      </trkpt>
      <trkpt lat="45.92272" lon="4.65321">
        <ele>309</ele>
        <time>2021-10-06T09:38:59.520Z</time>
      </trkpt>
      <trkpt lat="45.92264" lon="4.65318">
        <ele>309</ele>
        <time>2021-10-06T09:39:05.646Z</time>
      </trkpt>
      <trkpt lat="45.92246" lon="4.65306">
        <ele>309</ele>
        <time>2021-10-06T09:39:11.779Z</time>
      </trkpt>
      <trkpt lat="45.92226" lon="4.65296">
        <ele>306.60000610352</ele>
        <time>2021-10-06T09:39:17.920Z</time>
      </trkpt>
      <trkpt lat="45.92148" lon="4.65279">
        <ele>305.20001220703</ele>
        <time>2021-10-06T09:39:24.089Z</time>
      </trkpt>
      <trkpt lat="45.92075" lon="4.65258">
        <ele>305.20001220703</ele>
        <time>2021-10-06T09:39:30.285Z</time>
      </trkpt>
      <trkpt lat="45.92057" lon="4.65249">
        <ele>305.79998779297</ele>
        <time>2021-10-06T09:39:36.488Z</time>
      </trkpt>
      <trkpt lat="45.92022" lon="4.65226">
        <ele>306.60000610352</ele>
        <time>2021-10-06T09:39:42.704Z</time>
      </trkpt>
      <trkpt lat="45.92014" lon="4.65223">
        <ele>306.60000610352</ele>
        <time>2021-10-06T09:39:48.923Z</time>
      </trkpt>
      <trkpt lat="45.91793" lon="4.65152">
        <ele>303.79998779297</ele>
        <time>2021-10-06T09:39:55.223Z</time>
      </trkpt>
      <trkpt lat="45.91767" lon="4.65148">
        <ele>303.60000610352</ele>
        <time>2021-10-06T09:40:01.533Z</time>
      </trkpt>
      <trkpt lat="45.91743" lon="4.65147">
        <ele>303.60000610352</ele>
        <time>2021-10-06T09:40:07.851Z</time>
      </trkpt>
      <trkpt lat="45.9174" lon="4.65144">
        <ele>303.20001220703</ele>
        <time>2021-10-06T09:40:14.170Z</time>
      </trkpt>
      <trkpt lat="45.91736" lon="4.65138">
        <ele>303.20001220703</ele>
        <time>2021-10-06T09:40:20.492Z</time>
      </trkpt>
      <trkpt lat="45.91735" lon="4.65106">
        <ele>303</ele>
        <time>2021-10-06T09:40:26.821Z</time>
      </trkpt>
      <trkpt lat="45.91736" lon="4.65088">
        <ele>303</ele>
        <time>2021-10-06T09:40:33.155Z</time>
      </trkpt>
      <trkpt lat="45.91742" lon="4.65053">
        <ele>303</ele>
        <time>2021-10-06T09:40:39.498Z</time>
      </trkpt>
      <trkpt lat="45.91749" lon="4.65029">
        <ele>303</ele>
        <time>2021-10-06T09:40:45.848Z</time>
      </trkpt>
      <trkpt lat="45.91751" lon="4.65014">
        <ele>303</ele>
        <time>2021-10-06T09:40:52.201Z</time>
      </trkpt>
      <trkpt lat="45.91752" lon="4.64955">
        <ele>303</ele>
        <time>2021-10-06T09:40:58.569Z</time>
      </trkpt>
      <trkpt lat="45.91756" lon="4.64911">
        <ele>303</ele>
        <time>2021-10-06T09:41:04.948Z</time>
      </trkpt>
      <trkpt lat="45.91757" lon="4.64878">
        <ele>307.60000610352</ele>
        <time>2021-10-06T09:41:11.335Z</time>
      </trkpt>
      <trkpt lat="45.91759" lon="4.64869">
        <ele>307.60000610352</ele>
        <time>2021-10-06T09:41:17.725Z</time>
      </trkpt>
      <trkpt lat="45.91759" lon="4.64859">
        <ele>308</ele>
        <time>2021-10-06T09:41:24.117Z</time>
      </trkpt>
      <trkpt lat="45.91762" lon="4.64852">
        <ele>308</ele>
        <time>2021-10-06T09:41:30.511Z</time>
      </trkpt>
      <trkpt lat="45.91766" lon="4.64849">
        <ele>308.60000610352</ele>
        <time>2021-10-06T09:41:36.907Z</time>
      </trkpt>
      <trkpt lat="45.91778" lon="4.64858">
        <ele>308.60000610352</ele>
        <time>2021-10-06T09:41:43.308Z</time>
      </trkpt>
      <trkpt lat="45.91795" lon="4.64877">
        <ele>309</ele>
        <time>2021-10-06T09:41:49.716Z</time>
      </trkpt>
      <trkpt lat="45.9182" lon="4.64921">
        <ele>309.39999389648</ele>
        <time>2021-10-06T09:41:56.139Z</time>
      </trkpt>
      <trkpt lat="45.91829" lon="4.64934">
        <ele>309.39999389648</ele>
        <time>2021-10-06T09:42:02.566Z</time>
      </trkpt>
      <trkpt lat="45.91831" lon="4.64932">
        <ele>310.39999389648</ele>
        <time>2021-10-06T09:42:08.994Z</time>
      </trkpt>
      <trkpt lat="45.91833" lon="4.64934">
        <ele>310.39999389648</ele>
        <time>2021-10-06T09:42:15.423Z</time>
      </trkpt>
      <trkpt lat="45.91836" lon="4.64929">
        <ele>311.20001220703</ele>
        <time>2021-10-06T09:42:21.854Z</time>
      </trkpt>
      <trkpt lat="45.91835" lon="4.64934">
        <ele>311.20001220703</ele>
        <time>2021-10-06T09:42:28.286Z</time>
      </trkpt>
      <trkpt lat="45.91842" lon="4.64914">
        <ele>311.39999389648</ele>
        <time>2021-10-06T09:42:34.724Z</time>
      </trkpt>
      <trkpt lat="45.91849" lon="4.64913">
        <ele>311.79998779297</ele>
        <time>2021-10-06T09:42:41.164Z</time>
      </trkpt>
      <trkpt lat="45.91866" lon="4.649">
        <ele>311.79998779297</ele>
        <time>2021-10-06T09:42:47.611Z</time>
      </trkpt>
      <trkpt lat="45.91869" lon="4.649">
        <ele>313.20001220703</ele>
        <time>2021-10-06T09:42:54.059Z</time>
      </trkpt>
      <trkpt lat="45.91872" lon="4.64904">
        <ele>313.20001220703</ele>
        <time>2021-10-06T09:43:00.509Z</time>
      </trkpt>
      <trkpt lat="45.91875" lon="4.64899">
        <ele>313.39999389648</ele>
        <time>2021-10-06T09:43:06.960Z</time>
      </trkpt>
      <trkpt lat="45.91892" lon="4.64865">
        <ele>314</ele>
        <time>2021-10-06T09:43:13.422Z</time>
      </trkpt>
      <trkpt lat="45.91903" lon="4.6483">
        <ele>314</ele>
        <time>2021-10-06T09:43:19.893Z</time>
      </trkpt>
      <trkpt lat="45.91912" lon="4.64824">
        <ele>315.60000610352</ele>
        <time>2021-10-06T09:43:26.368Z</time>
      </trkpt>
      <trkpt lat="45.9192" lon="4.64813">
        <ele>315.60000610352</ele>
        <time>2021-10-06T09:43:32.847Z</time>
      </trkpt>
      <trkpt lat="45.91929" lon="4.64808">
        <ele>316.39999389648</ele>
        <time>2021-10-06T09:43:39.329Z</time>
      </trkpt>
      <trkpt lat="45.91961" lon="4.6476">
        <ele>316.39999389648</ele>
        <time>2021-10-06T09:43:45.828Z</time>
      </trkpt>
      <trkpt lat="45.91964" lon="4.64752">
        <ele>318.60000610352</ele>
        <time>2021-10-06T09:43:52.329Z</time>
      </trkpt>
      <trkpt lat="45.91969" lon="4.64722">
        <ele>318.60000610352</ele>
        <time>2021-10-06T09:43:58.838Z</time>
      </trkpt>
      <trkpt lat="45.91985" lon="4.64684">
        <ele>319.79998779297</ele>
        <time>2021-10-06T09:44:05.358Z</time>
      </trkpt>
      <trkpt lat="45.92013" lon="4.64604">
        <ele>319.79998779297</ele>
        <time>2021-10-06T09:44:11.900Z</time>
      </trkpt>
      <trkpt lat="45.92036" lon="4.64503">
        <ele>322</ele>
        <time>2021-10-06T09:44:18.469Z</time>
      </trkpt>
      <trkpt lat="45.92051" lon="4.64453">
        <ele>322</ele>
        <time>2021-10-06T09:44:25.051Z</time>
      </trkpt>
      <trkpt lat="45.92064" lon="4.64401">
        <ele>323.20001220703</ele>
        <time>2021-10-06T09:44:31.647Z</time>
      </trkpt>
      <trkpt lat="45.92087" lon="4.64331">
        <ele>324</ele>
        <time>2021-10-06T09:44:38.262Z</time>
      </trkpt>
      <trkpt lat="45.92099" lon="4.64302">
        <ele>324.60000610352</ele>
        <time>2021-10-06T09:44:44.886Z</time>
      </trkpt>
      <trkpt lat="45.92121" lon="4.64262">
        <ele>325.20001220703</ele>
        <time>2021-10-06T09:44:51.523Z</time>
      </trkpt>
      <trkpt lat="45.9216" lon="4.64179">
        <ele>325.20001220703</ele>
        <time>2021-10-06T09:44:58.184Z</time>
      </trkpt>
      <trkpt lat="45.9219" lon="4.64088">
        <ele>329.20001220703</ele>
        <time>2021-10-06T09:45:04.871Z</time>
      </trkpt>
      <trkpt lat="45.92204" lon="4.6406">
        <ele>329.39999389648</ele>
        <time>2021-10-06T09:45:11.566Z</time>
      </trkpt>
      <trkpt lat="45.92227" lon="4.63999">
        <ele>331.20001220703</ele>
        <time>2021-10-06T09:45:18.279Z</time>
      </trkpt>
      <trkpt lat="45.92243" lon="4.63971">
        <ele>331.20001220703</ele>
        <time>2021-10-06T09:45:25.001Z</time>
      </trkpt>
      <trkpt lat="45.92286" lon="4.63908">
        <ele>331.20001220703</ele>
        <time>2021-10-06T09:45:31.745Z</time>
      </trkpt>
      <trkpt lat="45.92294" lon="4.63894">
        <ele>331.20001220703</ele>
        <time>2021-10-06T09:45:38.493Z</time>
      </trkpt>
      <trkpt lat="45.923" lon="4.63872">
        <ele>333.39999389648</ele>
        <time>2021-10-06T09:45:45.247Z</time>
      </trkpt>
      <trkpt lat="45.92303" lon="4.63854">
        <ele>333.39999389648</ele>
        <time>2021-10-06T09:45:52.006Z</time>
      </trkpt>
      <trkpt lat="45.92312" lon="4.63788">
        <ele>333.39999389648</ele>
        <time>2021-10-06T09:45:58.781Z</time>
      </trkpt>
      <trkpt lat="45.92333" lon="4.63731">
        <ele>331.79998779297</ele>
        <time>2021-10-06T09:46:05.573Z</time>
      </trkpt>
      <trkpt lat="45.92332" lon="4.63724">
        <ele>331.39999389648</ele>
        <time>2021-10-06T09:46:12.366Z</time>
      </trkpt>
      <trkpt lat="45.92325" lon="4.63721">
        <ele>331.20001220703</ele>
        <time>2021-10-06T09:46:19.162Z</time>
      </trkpt>
      <trkpt lat="45.92306" lon="4.63723">
        <ele>330.79998779297</ele>
        <time>2021-10-06T09:46:25.965Z</time>
      </trkpt>
      <trkpt lat="45.92295" lon="4.63725">
        <ele>330.79998779297</ele>
        <time>2021-10-06T09:46:32.771Z</time>
      </trkpt>
      <trkpt lat="45.9228" lon="4.63734">
        <ele>330.79998779297</ele>
        <time>2021-10-06T09:46:39.584Z</time>
      </trkpt>
      <trkpt lat="45.9227" lon="4.63742">
        <ele>330</ele>
        <time>2021-10-06T09:46:46.400Z</time>
      </trkpt>
      <trkpt lat="45.92178" lon="4.63855">
        <ele>330</ele>
        <time>2021-10-06T09:46:53.260Z</time>
      </trkpt>
      <trkpt lat="45.92091" lon="4.63957">
        <ele>328.79998779297</ele>
        <time>2021-10-06T09:47:00.160Z</time>
      </trkpt>
      <trkpt lat="45.92064" lon="4.63983">
        <ele>328.39999389648</ele>
        <time>2021-10-06T09:47:07.071Z</time>
      </trkpt>
      <trkpt lat="45.92017" lon="4.6404">
        <ele>326.60000610352</ele>
        <time>2021-10-06T09:47:14.005Z</time>
      </trkpt>
      <trkpt lat="45.91996" lon="4.64061">
        <ele>326</ele>
        <time>2021-10-06T09:47:20.948Z</time>
      </trkpt>
      <trkpt lat="45.91983" lon="4.6407">
        <ele>325.60000610352</ele>
        <time>2021-10-06T09:47:27.896Z</time>
      </trkpt>
      <trkpt lat="45.91977" lon="4.6407">
        <ele>325.60000610352</ele>
        <time>2021-10-06T09:47:34.846Z</time>
      </trkpt>
      <trkpt lat="45.91971" lon="4.64067">
        <ele>325.60000610352</ele>
        <time>2021-10-06T09:47:41.798Z</time>
      </trkpt>
      <trkpt lat="45.91949" lon="4.64035">
        <ele>325.79998779297</ele>
        <time>2021-10-06T09:47:48.761Z</time>
      </trkpt>
      <trkpt lat="45.91922" lon="4.64002">
        <ele>325.79998779297</ele>
        <time>2021-10-06T09:47:55.737Z</time>
      </trkpt>
      <trkpt lat="45.9188" lon="4.6393">
        <ele>325.79998779297</ele>
        <time>2021-10-06T09:48:02.737Z</time>
      </trkpt>
      <trkpt lat="45.91873" lon="4.63921">
        <ele>325.79998779297</ele>
        <time>2021-10-06T09:48:09.740Z</time>
      </trkpt>
      <trkpt lat="45.91864" lon="4.63915">
        <ele>329</ele>
        <time>2021-10-06T09:48:16.746Z</time>
      </trkpt>
      <trkpt lat="45.91857" lon="4.63918">
        <ele>328.79998779297</ele>
        <time>2021-10-06T09:48:23.755Z</time>
      </trkpt>
      <trkpt lat="45.91843" lon="4.63937">
        <ele>328.60000610352</ele>
        <time>2021-10-06T09:48:30.771Z</time>
      </trkpt>
      <trkpt lat="45.91805" lon="4.64026">
        <ele>327.39999389648</ele>
        <time>2021-10-06T09:48:37.813Z</time>
      </trkpt>
      <trkpt lat="45.91793" lon="4.64045">
        <ele>327.20001220703</ele>
        <time>2021-10-06T09:48:44.861Z</time>
      </trkpt>
      <trkpt lat="45.91786" lon="4.64049">
        <ele>327.20001220703</ele>
        <time>2021-10-06T09:48:51.912Z</time>
      </trkpt>
      <trkpt lat="45.91729" lon="4.64032">
        <ele>325.79998779297</ele>
        <time>2021-10-06T09:48:58.984Z</time>
      </trkpt>
      <trkpt lat="45.91702" lon="4.64021">
        <ele>325.39999389648</ele>
        <time>2021-10-06T09:49:06.066Z</time>
      </trkpt>
      <trkpt lat="45.91679" lon="4.64016">
        <ele>324.79998779297</ele>
        <time>2021-10-06T09:49:13.156Z</time>
      </trkpt>
      <trkpt lat="45.91585" lon="4.63978">
        <ele>324.79998779297</ele>
        <time>2021-10-06T09:49:20.281Z</time>
      </trkpt>
      <trkpt lat="45.91579" lon="4.6398">
        <ele>323.60000610352</ele>
        <time>2021-10-06T09:49:27.409Z</time>
      </trkpt>
      <trkpt lat="45.91559" lon="4.64036">
        <ele>323.60000610352</ele>
        <time>2021-10-06T09:49:34.552Z</time>
      </trkpt>
      <trkpt lat="45.91542" lon="4.6408">
        <ele>323.60000610352</ele>
        <time>2021-10-06T09:49:41.708Z</time>
      </trkpt>
      <trkpt lat="45.91521" lon="4.64164">
        <ele>323.60000610352</ele>
        <time>2021-10-06T09:49:48.886Z</time>
      </trkpt>
      <trkpt lat="45.915" lon="4.64232">
        <ele>323.60000610352</ele>
        <time>2021-10-06T09:49:56.083Z</time>
      </trkpt>
      <trkpt lat="45.91486" lon="4.64289">
        <ele>323.60000610352</ele>
        <time>2021-10-06T09:50:03.295Z</time>
      </trkpt>
      <trkpt lat="45.91478" lon="4.64312">
        <ele>317.79998779297</ele>
        <time>2021-10-06T09:50:10.513Z</time>
      </trkpt>
      <trkpt lat="45.91475" lon="4.64315">
        <ele>317.60000610352</ele>
        <time>2021-10-06T09:50:17.733Z</time>
      </trkpt>
      <trkpt lat="45.91467" lon="4.6431">
        <ele>317.60000610352</ele>
        <time>2021-10-06T09:50:24.956Z</time>
      </trkpt>
      <trkpt lat="45.91454" lon="4.64305">
        <ele>317.60000610352</ele>
        <time>2021-10-06T09:50:32.183Z</time>
      </trkpt>
      <trkpt lat="45.9138" lon="4.64289">
        <ele>317.60000610352</ele>
        <time>2021-10-06T09:50:39.437Z</time>
      </trkpt>
      <trkpt lat="45.91316" lon="4.64269">
        <ele>317.60000610352</ele>
        <time>2021-10-06T09:50:46.715Z</time>
      </trkpt>
      <trkpt lat="45.91307" lon="4.64266">
        <ele>317.39999389648</ele>
        <time>2021-10-06T09:50:53.996Z</time>
      </trkpt>
      <trkpt lat="45.91295" lon="4.64259">
        <ele>317.39999389648</ele>
        <time>2021-10-06T09:51:01.282Z</time>
      </trkpt>
      <trkpt lat="45.91288" lon="4.64261">
        <ele>317.39999389648</ele>
        <time>2021-10-06T09:51:08.570Z</time>
      </trkpt>
      <trkpt lat="45.91272" lon="4.64295">
        <ele>317.39999389648</ele>
        <time>2021-10-06T09:51:15.869Z</time>
      </trkpt>
      <trkpt lat="45.91214" lon="4.64434">
        <ele>313.60000610352</ele>
        <time>2021-10-06T09:51:23.208Z</time>
      </trkpt>
      <trkpt lat="45.91194" lon="4.64475">
        <ele>313.60000610352</ele>
        <time>2021-10-06T09:51:30.559Z</time>
      </trkpt>
      <trkpt lat="45.91122" lon="4.64644">
        <ele>310.20001220703</ele>
        <time>2021-10-06T09:51:37.960Z</time>
      </trkpt>
      <trkpt lat="45.91095" lon="4.64714">
        <ele>310.20001220703</ele>
        <time>2021-10-06T09:51:45.381Z</time>
      </trkpt>
      <trkpt lat="45.91089" lon="4.64741">
        <ele>307.60000610352</ele>
        <time>2021-10-06T09:51:52.809Z</time>
      </trkpt>
      <trkpt lat="45.9108" lon="4.64762">
        <ele>307.60000610352</ele>
        <time>2021-10-06T09:52:00.243Z</time>
      </trkpt>
      <trkpt lat="45.91074" lon="4.64773">
        <ele>307.60000610352</ele>
        <time>2021-10-06T09:52:07.680Z</time>
      </trkpt>
      <trkpt lat="45.91062" lon="4.64784">
        <ele>304</ele>
        <time>2021-10-06T09:52:15.123Z</time>
      </trkpt>
      <trkpt lat="45.91043" lon="4.64791">
        <ele>299.79998779297</ele>
        <time>2021-10-06T09:52:22.573Z</time>
      </trkpt>
      <trkpt lat="45.91033" lon="4.64797">
        <ele>299.79998779297</ele>
        <time>2021-10-06T09:52:30.027Z</time>
      </trkpt>
      <trkpt lat="45.91022" lon="4.64815">
        <ele>295</ele>
        <time>2021-10-06T09:52:37.487Z</time>
      </trkpt>
      <trkpt lat="45.91007" lon="4.64835">
        <ele>295</ele>
        <time>2021-10-06T09:52:44.954Z</time>
      </trkpt>
      <trkpt lat="45.90995" lon="4.64862">
        <ele>286.20001220703</ele>
        <time>2021-10-06T09:52:52.429Z</time>
      </trkpt>
      <trkpt lat="45.9099" lon="4.64859">
        <ele>286.20001220703</ele>
        <time>2021-10-06T09:52:59.906Z</time>
      </trkpt>
      <trkpt lat="45.90979" lon="4.64836">
        <ele>285.39999389648</ele>
        <time>2021-10-06T09:53:07.390Z</time>
      </trkpt>
      <trkpt lat="45.90969" lon="4.64815">
        <ele>283.79998779297</ele>
        <time>2021-10-06T09:53:14.880Z</time>
      </trkpt>
      <trkpt lat="45.90961" lon="4.64789">
        <ele>283.79998779297</ele>
        <time>2021-10-06T09:53:22.377Z</time>
      </trkpt>
      <trkpt lat="45.90953" lon="4.64778">
        <ele>283.79998779297</ele>
        <time>2021-10-06T09:53:29.878Z</time>
      </trkpt>
      <trkpt lat="45.90935" lon="4.64767">
        <ele>283.79998779297</ele>
        <time>2021-10-06T09:53:37.386Z</time>
      </trkpt>
      <trkpt lat="45.90927" lon="4.64767">
        <ele>280.39999389648</ele>
        <time>2021-10-06T09:53:44.897Z</time>
      </trkpt>
      <trkpt lat="45.90904" lon="4.64759">
        <ele>281.39999389648</ele>
        <time>2021-10-06T09:53:52.416Z</time>
      </trkpt>
      <trkpt lat="45.90891" lon="4.64758">
        <ele>281.39999389648</ele>
        <time>2021-10-06T09:53:59.940Z</time>
      </trkpt>
      <trkpt lat="45.90853" lon="4.64748">
        <ele>284</ele>
        <time>2021-10-06T09:54:07.478Z</time>
      </trkpt>
      <trkpt lat="45.90841" lon="4.64739">
        <ele>284</ele>
        <time>2021-10-06T09:54:15.021Z</time>
      </trkpt>
      <trkpt lat="45.90819" lon="4.6473">
        <ele>284</ele>
        <time>2021-10-06T09:54:22.572Z</time>
      </trkpt>
      <trkpt lat="45.90813" lon="4.6472">
        <ele>284</ele>
        <time>2021-10-06T09:54:30.126Z</time>
      </trkpt>
      <trkpt lat="45.90807" lon="4.64694">
        <ele>283.60000610352</ele>
        <time>2021-10-06T09:54:37.687Z</time>
      </trkpt>
      <trkpt lat="45.90807" lon="4.64685">
        <ele>283.60000610352</ele>
        <time>2021-10-06T09:54:45.250Z</time>
      </trkpt>
      <trkpt lat="45.90804" lon="4.64678">
        <ele>283.60000610352</ele>
        <time>2021-10-06T09:54:52.815Z</time>
      </trkpt>
      <trkpt lat="45.90803" lon="4.6467">
        <ele>283.60000610352</ele>
        <time>2021-10-06T09:55:00.382Z</time>
      </trkpt>
      <trkpt lat="45.908" lon="4.6466">
        <ele>283.79998779297</ele>
        <time>2021-10-06T09:55:07.952Z</time>
      </trkpt>
      <trkpt lat="45.90799" lon="4.6465">
        <ele>283.79998779297</ele>
        <time>2021-10-06T09:55:15.525Z</time>
      </trkpt>
      <trkpt lat="45.90797" lon="4.64644">
        <ele>283.79998779297</ele>
        <time>2021-10-06T09:55:23.099Z</time>
      </trkpt>
      <trkpt lat="45.90795" lon="4.64643">
        <ele>284.60000610352</ele>
        <time>2021-10-06T09:55:30.674Z</time>
      </trkpt>
      <trkpt lat="45.90764" lon="4.64636">
        <ele>287.60000610352</ele>
        <time>2021-10-06T09:55:38.260Z</time>
      </trkpt>
      <trkpt lat="45.9075" lon="4.64637">
        <ele>288.39999389648</ele>
        <time>2021-10-06T09:55:45.851Z</time>
      </trkpt>
      <trkpt lat="45.90724" lon="4.64634">
        <ele>288.39999389648</ele>
        <time>2021-10-06T09:55:53.452Z</time>
      </trkpt>
      <trkpt lat="45.90716" lon="4.64638">
        <ele>289.39999389648</ele>
        <time>2021-10-06T09:56:01.056Z</time>
      </trkpt>
      <trkpt lat="45.90709" lon="4.64637">
        <ele>289.39999389648</ele>
        <time>2021-10-06T09:56:08.662Z</time>
      </trkpt>
      <trkpt lat="45.90702" lon="4.64634">
        <ele>289.39999389648</ele>
        <time>2021-10-06T09:56:16.271Z</time>
      </trkpt>
      <trkpt lat="45.90691" lon="4.64639">
        <ele>289.39999389648</ele>
        <time>2021-10-06T09:56:23.884Z</time>
      </trkpt>
      <trkpt lat="45.90677" lon="4.64639">
        <ele>289.39999389648</ele>
        <time>2021-10-06T09:56:31.502Z</time>
      </trkpt>
      <trkpt lat="45.90656" lon="4.64647">
        <ele>289.39999389648</ele>
        <time>2021-10-06T09:56:39.128Z</time>
      </trkpt>
      <trkpt lat="45.9064" lon="4.64649">
        <ele>291.79998779297</ele>
        <time>2021-10-06T09:56:46.759Z</time>
      </trkpt>
      <trkpt lat="45.90625" lon="4.64653">
        <ele>281</ele>
      </trkpt>
      <trkpt lat="45.90622" lon="4.64653">
        <ele>280.8</ele>
      </trkpt>
      <trkpt lat="45.90624" lon="4.64651">
        <ele>280.9</ele>
      </trkpt>
      <trkpt lat="45.90633" lon="4.64637">
        <ele>281.6</ele>
      </trkpt>
      <trkpt lat="45.90649" lon="4.64597">
        <ele>283.6</ele>
      </trkpt>
      <trkpt lat="45.9066" lon="4.6457">
        <ele>285.6</ele>
      </trkpt>
      <trkpt lat="45.90664" lon="4.64545">
        <ele>287</ele>
      </trkpt>
      <trkpt lat="45.90673" lon="4.64527">
        <ele>288</ele>
      </trkpt>
    </trkseg>
  </trk>
</gpx>